sensor_id;sensor_type;location;lat;lon;timestamp;temperature;humidity
49413;DHT22;35493;50.276;9.372;2024-01-11T00:02:11;-3273.30;78.20
49413;DHT22;35493;50.276;9.372;2024-01-11T00:04:44;-3273.30;78.20
49413;DHT22;35493;50.276;9.372;2024-01-11T00:07:18;-3273.30;78.30
49413;DHT22;35493;50.276;9.372;2024-01-11T00:09:52;-3273.40;78.20
49413;DHT22;35493;50.276;9.372;2024-01-11T00:12:25;-3273.30;78.00
49413;DHT22;35493;50.276;9.372;2024-01-11T00:14:58;-3273.30;78.10
49413;DHT22;35493;50.276;9.372;2024-01-11T00:17:32;-3273.30;78.20
49413;DHT22;35493;50.276;9.372;2024-01-11T00:20:05;-3273.20;78.10
49413;DHT22;35493;50.276;9.372;2024-01-11T00:22:40;-3273.10;78.50
49413;DHT22;35493;50.276;9.372;2024-01-11T00:25:13;-3273.20;78.50
49413;DHT22;35493;50.276;9.372;2024-01-11T00:27:46;-3273.20;78.40
49413;DHT22;35493;50.276;9.372;2024-01-11T00:30:19;-3273.20;78.30
49413;DHT22;35493;50.276;9.372;2024-01-11T00:32:52;-3273.20;78.40
49413;DHT22;35493;50.276;9.372;2024-01-11T00:35:25;-3273.20;78.30
49413;DHT22;35493;50.276;9.372;2024-01-11T00:38:06;-3273.10;78.30
49413;DHT22;35493;50.276;9.372;2024-01-11T00:40:39;-3273.00;78.60
49413;DHT22;35493;50.276;9.372;2024-01-11T00:43:12;-3272.90;78.90
49413;DHT22;35493;50.276;9.372;2024-01-11T00:45:45;-3272.90;79.20
49413;DHT22;35493;50.276;9.372;2024-01-11T00:48:19;-3272.90;79.20
49413;DHT22;35493;50.276;9.372;2024-01-11T00:50:52;-3272.90;79.40
49413;DHT22;35493;50.276;9.372;2024-01-11T00:53:26;-3273.00;79.10
49413;DHT22;35493;50.276;9.372;2024-01-11T00:56:02;-3273.00;78.90
49413;DHT22;35493;50.276;9.372;2024-01-11T00:58:35;-3273.10;78.70
49413;DHT22;35493;50.276;9.372;2024-01-11T01:01:08;-3273.00;78.70
49413;DHT22;35493;50.276;9.372;2024-01-11T01:03:42;-3273.00;78.70
49413;DHT22;35493;50.276;9.372;2024-01-11T01:06:15;-3272.90;78.90
49413;DHT22;35493;50.276;9.372;2024-01-11T01:08:50;-3273.00;78.90
49413;DHT22;35493;50.276;9.372;2024-01-11T01:11:17;-3272.90;78.80
49413;DHT22;35493;50.276;9.372;2024-01-11T01:13:50;-3272.90;78.70
49413;DHT22;35493;50.276;9.372;2024-01-11T01:16:23;-3272.90;78.90
49413;DHT22;35493;50.276;9.372;2024-01-11T01:18:56;-3273.00;78.90
49413;DHT22;35493;50.276;9.372;2024-01-11T01:21:29;-3273.00;78.80
49413;DHT22;35493;50.276;9.372;2024-01-11T01:24:03;-3272.90;78.70
49413;DHT22;35493;50.276;9.372;2024-01-11T01:26:37;-3272.90;78.80
49413;DHT22;35493;50.276;9.372;2024-01-11T01:29:10;-3273.00;78.80
49413;DHT22;35493;50.276;9.372;2024-01-11T01:31:44;-3273.00;78.60
49413;DHT22;35493;50.276;9.372;2024-01-11T01:34:18;-3273.10;78.40
49413;DHT22;35493;50.276;9.372;2024-01-11T01:36:51;-3273.10;78.30
49413;DHT22;35493;50.276;9.372;2024-01-11T01:39:25;-3273.10;78.20
49413;DHT22;35493;50.276;9.372;2024-01-11T01:41:59;-3273.00;78.20
49413;DHT22;35493;50.276;9.372;2024-01-11T01:44:32;-3273.00;78.20
49413;DHT22;35493;50.276;9.372;2024-01-11T01:47:06;-3272.90;78.30
49413;DHT22;35493;50.276;9.372;2024-01-11T01:49:40;-3272.90;78.40
49413;DHT22;35493;50.276;9.372;2024-01-11T01:52:13;-3272.90;78.40
49413;DHT22;35493;50.276;9.372;2024-01-11T01:54:48;-3272.80;78.40
49413;DHT22;35493;50.276;9.372;2024-01-11T01:57:23;-3272.70;78.60
49413;DHT22;35493;50.276;9.372;2024-01-11T01:59:56;-3272.70;78.90
49413;DHT22;35493;50.276;9.372;2024-01-11T02:02:37;-3272.70;78.90
49413;DHT22;35493;50.276;9.372;2024-01-11T02:05:11;-3272.60;79.00
49413;DHT22;35493;50.276;9.372;2024-01-11T02:07:45;-3272.70;78.90
49413;DHT22;35493;50.276;9.372;2024-01-11T02:10:20;-3272.70;78.80
49413;DHT22;35493;50.276;9.372;2024-01-11T02:12:53;-3272.70;78.80
49413;DHT22;35493;50.276;9.372;2024-01-11T02:15:26;-3272.80;78.60
49413;DHT22;35493;50.276;9.372;2024-01-11T02:17:59;-3272.70;78.50
49413;DHT22;35493;50.276;9.372;2024-01-11T02:20:26;-3272.70;78.40
49413;DHT22;35493;50.276;9.372;2024-01-11T02:23:01;-3272.60;78.70
49413;DHT22;35493;50.276;9.372;2024-01-11T02:25:37;-3272.50;78.90
49413;DHT22;35493;50.276;9.372;2024-01-11T02:28:11;-3272.50;79.00
49413;DHT22;35493;50.276;9.372;2024-01-11T02:30:44;-3272.60;79.10
49413;DHT22;35493;50.276;9.372;2024-01-11T02:33:24;-3272.50;78.90
49413;DHT22;35493;50.276;9.372;2024-01-11T02:35:57;-3272.50;79.00
49413;DHT22;35493;50.276;9.372;2024-01-11T02:38:30;-3272.60;78.90
49413;DHT22;35493;50.276;9.372;2024-01-11T02:41:06;-3272.60;79.00
49413;DHT22;35493;50.276;9.372;2024-01-11T02:43:40;-3272.60;79.20
49413;DHT22;35493;50.276;9.372;2024-01-11T02:46:13;-3272.60;79.00
49413;DHT22;35493;50.276;9.372;2024-01-11T02:48:46;-3272.50;79.10
49413;DHT22;35493;50.276;9.372;2024-01-11T02:51:19;-3272.50;79.30
49413;DHT22;35493;50.276;9.372;2024-01-11T02:53:52;-3272.50;79.40
49413;DHT22;35493;50.276;9.372;2024-01-11T02:56:26;-3272.50;79.50
49413;DHT22;35493;50.276;9.372;2024-01-11T02:59:00;-3272.50;79.50
49413;DHT22;35493;50.276;9.372;2024-01-11T03:01:33;-3272.60;79.20
49413;DHT22;35493;50.276;9.372;2024-01-11T03:04:06;-3272.70;79.20
49413;DHT22;35493;50.276;9.372;2024-01-11T03:06:39;-3272.80;78.80
49413;DHT22;35493;50.276;9.372;2024-01-11T03:09:12;-3272.80;78.50
49413;DHT22;35493;50.276;9.372;2024-01-11T03:11:46;-3272.80;78.30
49413;DHT22;35493;50.276;9.372;2024-01-11T03:14:20;-3272.70;78.30
49413;DHT22;35493;50.276;9.372;2024-01-11T03:16:53;-3272.60;78.20
49413;DHT22;35493;50.276;9.372;2024-01-11T03:19:26;-3272.60;78.30
49413;DHT22;35493;50.276;9.372;2024-01-11T03:21:59;-3272.60;78.10
49413;DHT22;35493;50.276;9.372;2024-01-11T03:24:37;-3272.60;78.30
49413;DHT22;35493;50.276;9.372;2024-01-11T03:27:11;-3272.50;78.20
49413;DHT22;35493;50.276;9.372;2024-01-11T03:29:45;-3272.50;78.10
49413;DHT22;35493;50.276;9.372;2024-01-11T03:32:18;-3272.50;78.00
49413;DHT22;35493;50.276;9.372;2024-01-11T03:34:51;-3272.50;77.90
49413;DHT22;35493;50.276;9.372;2024-01-11T03:37:18;-3272.50;77.80
49413;DHT22;35493;50.276;9.372;2024-01-11T03:39:51;-3272.50;77.80
49413;DHT22;35493;50.276;9.372;2024-01-11T03:42:25;-3272.50;77.80
49413;DHT22;35493;50.276;9.372;2024-01-11T03:44:59;-3272.50;77.80
49413;DHT22;35493;50.276;9.372;2024-01-11T03:47:32;-3272.50;77.70
49413;DHT22;35493;50.276;9.372;2024-01-11T03:50:05;-3272.50;77.60
49413;DHT22;35493;50.276;9.372;2024-01-11T03:52:39;-3272.40;77.60
49413;DHT22;35493;50.276;9.372;2024-01-11T03:55:13;-3272.40;77.80
49413;DHT22;35493;50.276;9.372;2024-01-11T03:57:47;-3272.30;77.90
49413;DHT22;35493;50.276;9.372;2024-01-11T04:00:21;-3272.40;78.00
49413;DHT22;35493;50.276;9.372;2024-01-11T04:02:54;-3272.40;77.70
49413;DHT22;35493;50.276;9.372;2024-01-11T04:05:27;-3272.40;77.80
49413;DHT22;35493;50.276;9.372;2024-01-11T04:08:02;-3272.20;77.90
49413;DHT22;35493;50.276;9.372;2024-01-11T04:10:36;-3272.20;78.20
49413;DHT22;35493;50.276;9.372;2024-01-11T04:13:10;-3272.20;78.20
49413;DHT22;35493;50.276;9.372;2024-01-11T04:15:44;-3272.30;78.20
49413;DHT22;35493;50.276;9.372;2024-01-11T04:18:17;-3272.20;78.00
49413;DHT22;35493;50.276;9.372;2024-01-11T04:20:44;-3272.10;78.20
49413;DHT22;35493;50.276;9.372;2024-01-11T04:23:17;-3272.10;78.50
49413;DHT22;35493;50.276;9.372;2024-01-11T04:25:50;-3272.10;78.30
49413;DHT22;35493;50.276;9.372;2024-01-11T04:28:24;-3272.30;78.30
49413;DHT22;35493;50.276;9.372;2024-01-11T04:30:58;-3272.30;77.90
49413;DHT22;35493;50.276;9.372;2024-01-11T04:33:31;-3272.30;77.70
49413;DHT22;35493;50.276;9.372;2024-01-11T04:36:04;-3272.30;77.60
49413;DHT22;35493;50.276;9.372;2024-01-11T04:38:38;-3272.30;77.80
49413;DHT22;35493;50.276;9.372;2024-01-11T04:41:12;-3272.30;77.70
49413;DHT22;35493;50.276;9.372;2024-01-11T04:43:47;-3272.20;77.70
49413;DHT22;35493;50.276;9.372;2024-01-11T04:46:22;-3272.20;77.80
49413;DHT22;35493;50.276;9.372;2024-01-11T04:48:55;-3272.20;77.90
49413;DHT22;35493;50.276;9.372;2024-01-11T04:51:28;-3272.10;77.80
49413;DHT22;35493;50.276;9.372;2024-01-11T04:54:01;-3272.20;77.70
49413;DHT22;35493;50.276;9.372;2024-01-11T04:56:34;-3272.30;77.60
49413;DHT22;35493;50.276;9.372;2024-01-11T04:59:08;-3272.20;77.40
49413;DHT22;35493;50.276;9.372;2024-01-11T05:01:42;-3272.20;77.70
49413;DHT22;35493;50.276;9.372;2024-01-11T05:04:15;-3272.20;77.60
49413;DHT22;35493;50.276;9.372;2024-01-11T05:06:48;-3272.20;77.50
49413;DHT22;35493;50.276;9.372;2024-01-11T05:09:21;-3272.20;77.50
49413;DHT22;35493;50.276;9.372;2024-01-11T05:11:54;-3272.20;77.50
49413;DHT22;35493;50.276;9.372;2024-01-11T05:14:28;-3272.10;77.40
49413;DHT22;35493;50.276;9.372;2024-01-11T05:17:02;-3272.00;77.80
49413;DHT22;35493;50.276;9.372;2024-01-11T05:19:35;-3271.90;78.00
49413;DHT22;35493;50.276;9.372;2024-01-11T05:22:08;-3271.90;78.10
49413;DHT22;35493;50.276;9.372;2024-01-11T05:24:41;-3271.80;78.30
49413;DHT22;35493;50.276;9.372;2024-01-11T05:27:14;-3271.90;78.10
49413;DHT22;35493;50.276;9.372;2024-01-11T05:29:48;-3271.80;78.30
49413;DHT22;35493;50.276;9.372;2024-01-11T05:32:21;-3271.90;78.30
49413;DHT22;35493;50.276;9.372;2024-01-11T05:34:54;-3271.80;78.20
49413;DHT22;35493;50.276;9.372;2024-01-11T05:37:27;-3271.80;78.40
49413;DHT22;35493;50.276;9.372;2024-01-11T05:40:00;-3271.90;78.40
49413;DHT22;35493;50.276;9.372;2024-01-11T05:42:33;-3271.90;78.30
49413;DHT22;35493;50.276;9.372;2024-01-11T05:45:08;-3271.80;78.40
49413;DHT22;35493;50.276;9.372;2024-01-11T05:47:41;-3271.90;78.30
49413;DHT22;35493;50.276;9.372;2024-01-11T05:50:14;-3271.90;78.30
49413;DHT22;35493;50.276;9.372;2024-01-11T05:52:47;-3271.80;78.40
49413;DHT22;35493;50.276;9.372;2024-01-11T05:55:20;-3271.80;78.50
49413;DHT22;35493;50.276;9.372;2024-01-11T05:57:53;-3271.90;78.30
49413;DHT22;35493;50.276;9.372;2024-01-11T06:00:27;-3271.80;78.30
49413;DHT22;35493;50.276;9.372;2024-01-11T06:03:00;-3271.90;78.30
49413;DHT22;35493;50.276;9.372;2024-01-11T06:05:33;-3271.80;78.40
49413;DHT22;35493;50.276;9.372;2024-01-11T06:08:06;-3271.90;78.20
49413;DHT22;35493;50.276;9.372;2024-01-11T06:10:39;-3271.70;78.40
49413;DHT22;35493;50.276;9.372;2024-01-11T06:13:12;-3271.80;78.30
49413;DHT22;35493;50.276;9.372;2024-01-11T06:15:46;-3271.80;78.20
49413;DHT22;35493;50.276;9.372;2024-01-11T06:18:20;-3271.80;78.30
49413;DHT22;35493;50.276;9.372;2024-01-11T06:20:53;-3271.90;78.10
49413;DHT22;35493;50.276;9.372;2024-01-11T06:23:26;-3271.90;77.80
49413;DHT22;35493;50.276;9.372;2024-01-11T06:25:59;-3272.00;77.60
49413;DHT22;35493;50.276;9.372;2024-01-11T06:28:32;-3271.90;77.50
49413;DHT22;35493;50.276;9.372;2024-01-11T06:31:06;-3272.00;77.60
49413;DHT22;35493;50.276;9.372;2024-01-11T06:33:40;-3271.90;77.50
49413;DHT22;35493;50.276;9.372;2024-01-11T06:36:14;-3271.90;77.80
49413;DHT22;35493;50.276;9.372;2024-01-11T06:38:47;-3271.90;77.60
49413;DHT22;35493;50.276;9.372;2024-01-11T06:41:20;-3272.00;77.50
49413;DHT22;35493;50.276;9.372;2024-01-11T06:43:53;-3272.00;77.30
49413;DHT22;35493;50.276;9.372;2024-01-11T06:46:27;-3271.90;77.30
49413;DHT22;35493;50.276;9.372;2024-01-11T06:49:01;-3271.90;77.40
49413;DHT22;35493;50.276;9.372;2024-01-11T06:51:35;-3271.90;77.30
49413;DHT22;35493;50.276;9.372;2024-01-11T06:54:08;-3271.80;77.10
49413;DHT22;35493;50.276;9.372;2024-01-11T06:56:41;-3271.70;77.00
49413;DHT22;35493;50.276;9.372;2024-01-11T06:59:14;-3271.70;76.90
49413;DHT22;35493;50.276;9.372;2024-01-11T07:01:48;-3271.70;76.90
49413;DHT22;35493;50.276;9.372;2024-01-11T07:07:23;-3271.70;76.80
49413;DHT22;35493;50.276;9.372;2024-01-11T07:09:56;-3271.60;76.80
49413;DHT22;35493;50.276;9.372;2024-01-11T07:12:29;-3271.60;77.00
49413;DHT22;35493;50.276;9.372;2024-01-11T07:15:02;-3271.60;76.90
49413;DHT22;35493;50.276;9.372;2024-01-11T07:17:37;-3271.60;77.00
49413;DHT22;35493;50.276;9.372;2024-01-11T07:20:26;-3271.60;76.90
49413;DHT22;35493;50.276;9.372;2024-01-11T07:22:59;-3271.60;76.90
49413;DHT22;35493;50.276;9.372;2024-01-11T07:25:39;-3271.60;77.00
49413;DHT22;35493;50.276;9.372;2024-01-11T07:28:12;-3271.70;77.00
49413;DHT22;35493;50.276;9.372;2024-01-11T07:30:45;-3271.70;77.00
49413;DHT22;35493;50.276;9.372;2024-01-11T07:33:20;-3271.80;77.10
49413;DHT22;35493;50.276;9.372;2024-01-11T07:35:54;-3271.80;77.00
49413;DHT22;35493;50.276;9.372;2024-01-11T07:38:27;-3271.80;77.10
49413;DHT22;35493;50.276;9.372;2024-01-11T07:41:00;-3271.70;77.00
49413;DHT22;35493;50.276;9.372;2024-01-11T07:43:33;-3271.60;76.90
49413;DHT22;35493;50.276;9.372;2024-01-11T07:46:00;-3271.60;76.90
49413;DHT22;35493;50.276;9.372;2024-01-11T07:48:36;-3271.50;76.90
49413;DHT22;35493;50.276;9.372;2024-01-11T07:51:10;-3271.60;76.80
49413;DHT22;35493;50.276;9.372;2024-01-11T07:53:43;-3271.50;76.60
49413;DHT22;35493;50.276;9.372;2024-01-11T07:56:16;-3271.50;76.80
49413;DHT22;35493;50.276;9.372;2024-01-11T07:58:49;-3271.60;76.80
49413;DHT22;35493;50.276;9.372;2024-01-11T08:01:22;-3271.50;76.80
49413;DHT22;35493;50.276;9.372;2024-01-11T08:03:56;-3271.60;76.90
49413;DHT22;35493;50.276;9.372;2024-01-11T08:06:30;-3271.70;76.70
49413;DHT22;35493;50.276;9.372;2024-01-11T08:09:04;-3271.60;76.80
49413;DHT22;35493;50.276;9.372;2024-01-11T08:11:37;-3271.60;76.80
49413;DHT22;35493;50.276;9.372;2024-01-11T08:14:10;-3271.60;76.80
49413;DHT22;35493;50.276;9.372;2024-01-11T08:16:43;-3271.70;76.90
49413;DHT22;35493;50.276;9.372;2024-01-11T08:19:17;-3271.80;76.80
49413;DHT22;35493;50.276;9.372;2024-01-11T08:21:58;-3271.70;77.10
49413;DHT22;35493;50.276;9.372;2024-01-11T08:24:31;-3271.80;77.10
49413;DHT22;35493;50.276;9.372;2024-01-11T08:27:06;-3271.80;77.00
49413;DHT22;35493;50.276;9.372;2024-01-11T08:29:39;-3271.90;77.10
49413;DHT22;35493;50.276;9.372;2024-01-11T08:32:12;-3271.90;77.10
49413;DHT22;35493;50.276;9.372;2024-01-11T08:34:46;-3271.90;77.50
49413;DHT22;35493;50.276;9.372;2024-01-11T08:37:20;-3271.90;77.50
49413;DHT22;35493;50.276;9.372;2024-01-11T08:39:53;-3271.90;77.50
49413;DHT22;35493;50.276;9.372;2024-01-11T08:42:26;-3271.80;77.70
49413;DHT22;35493;50.276;9.372;2024-01-11T08:44:59;-3271.80;78.00
49413;DHT22;35493;50.276;9.372;2024-01-11T08:47:38;-3271.70;78.20
49413;DHT22;35493;50.276;9.372;2024-01-11T08:50:14;-3271.70;78.50
49413;DHT22;35493;50.276;9.372;2024-01-11T08:52:47;-3271.70;78.50
49413;DHT22;35493;50.276;9.372;2024-01-11T08:55:20;-3271.90;78.40
49413;DHT22;35493;50.276;9.372;2024-01-11T08:57:53;-3272.00;78.00
49413;DHT22;35493;50.276;9.372;2024-01-11T09:00:26;-3272.00;78.00
49413;DHT22;35493;50.276;9.372;2024-01-11T09:02:59;-3272.00;78.10
49413;DHT22;35493;50.276;9.372;2024-01-11T09:05:33;-3272.00;78.10
49413;DHT22;35493;50.276;9.372;2024-01-11T09:08:00;-3272.10;78.10
49413;DHT22;35493;50.276;9.372;2024-01-11T09:10:33;-3272.10;78.20
49413;DHT22;35493;50.276;9.372;2024-01-11T09:13:06;-3272.00;78.30
49413;DHT22;35493;50.276;9.372;2024-01-11T09:15:39;-3272.20;78.40
49413;DHT22;35493;50.276;9.372;2024-01-11T09:18:12;-3272.30;78.30
49413;DHT22;35493;50.276;9.372;2024-01-11T09:20:46;-3272.20;78.10
49413;DHT22;35493;50.276;9.372;2024-01-11T09:23:20;-3272.30;78.60
49413;DHT22;35493;50.276;9.372;2024-01-11T09:25:53;-3272.40;78.40
49413;DHT22;35493;50.276;9.372;2024-01-11T09:28:26;-3272.50;78.30
49413;DHT22;35493;50.276;9.372;2024-01-11T09:30:59;-3272.50;78.10
49413;DHT22;35493;50.276;9.372;2024-01-11T09:33:33;-3272.50;78.30
49413;DHT22;35493;50.276;9.372;2024-01-11T09:36:07;-3272.40;78.20
49413;DHT22;35493;50.276;9.372;2024-01-11T09:38:41;-3272.40;78.40
49413;DHT22;35493;50.276;9.372;2024-01-11T09:41:14;-3272.40;78.50
49413;DHT22;35493;50.276;9.372;2024-01-11T09:43:47;-3272.60;78.50
49413;DHT22;35493;50.276;9.372;2024-01-11T09:46:21;-3272.60;78.40
49413;DHT22;35493;50.276;9.372;2024-01-11T09:48:55;-3272.70;78.30
49413;DHT22;35493;50.276;9.372;2024-01-11T09:51:30;-3272.80;78.50
49413;DHT22;35493;50.276;9.372;2024-01-11T09:54:06;-3272.80;78.30
49413;DHT22;35493;50.276;9.372;2024-01-11T09:56:39;-3272.80;78.20
49413;DHT22;35493;50.276;9.372;2024-01-11T09:59:12;-3272.90;78.40
49413;DHT22;35493;50.276;9.372;2024-01-11T10:01:45;-3272.90;78.20
49413;DHT22;35493;50.276;9.372;2024-01-11T10:04:18;-3273.00;78.20
49413;DHT22;35493;50.276;9.372;2024-01-11T10:06:52;-3273.10;78.30
49413;DHT22;35493;50.276;9.372;2024-01-11T10:09:26;-3273.10;78.30
49413;DHT22;35493;50.276;9.372;2024-01-11T10:11:59;-3273.10;78.30
49413;DHT22;35493;50.276;9.372;2024-01-11T10:14:32;-3273.10;78.30
49413;DHT22;35493;50.276;9.372;2024-01-11T10:17:05;-3273.20;78.50
49413;DHT22;35493;50.276;9.372;2024-01-11T10:19:39;-3273.20;78.50
49413;DHT22;35493;50.276;9.372;2024-01-11T10:22:13;-3273.20;78.60
49413;DHT22;35493;50.276;9.372;2024-01-11T10:24:49;-3273.20;78.50
49413;DHT22;35493;50.276;9.372;2024-01-11T10:27:25;-3273.30;78.40
49413;DHT22;35493;50.276;9.372;2024-01-11T10:29:59;-3273.30;78.50
49413;DHT22;35493;50.276;9.372;2024-01-11T10:32:27;-3273.40;78.40
49413;DHT22;35493;50.276;9.372;2024-01-11T10:35:01;-3273.40;78.50
49413;DHT22;35493;50.276;9.372;2024-01-11T10:37:37;-3273.50;78.40
49413;DHT22;35493;50.276;9.372;2024-01-11T10:40:11;-3273.50;78.20
49413;DHT22;35493;50.276;9.372;2024-01-11T10:42:49;-3273.50;78.20
49413;DHT22;35493;50.276;9.372;2024-01-11T10:45:23;-3273.60;78.30
49413;DHT22;35493;50.276;9.372;2024-01-11T10:48:01;-3273.60;78.20
49413;DHT22;35493;50.276;9.372;2024-01-11T10:50:36;-3273.70;78.20
49413;DHT22;35493;50.276;9.372;2024-01-11T10:53:21;-3273.70;78.20
49413;DHT22;35493;50.276;9.372;2024-01-11T10:55:59;-3273.60;78.20
49413;DHT22;35493;50.276;9.372;2024-01-11T10:58:34;-3273.70;78.40
49413;DHT22;35493;50.276;9.372;2024-01-11T11:01:08;-3273.80;78.30
49413;DHT22;35493;50.276;9.372;2024-01-11T11:03:42;-3273.90;78.30
49413;DHT22;35493;50.276;9.372;2024-01-11T11:06:16;-3273.90;78.40
49413;DHT22;35493;50.276;9.372;2024-01-11T11:08:52;-3273.90;78.40
49413;DHT22;35493;50.276;9.372;2024-01-11T11:11:26;-3273.90;78.40
49413;DHT22;35493;50.276;9.372;2024-01-11T11:14:01;-3274.00;78.40
49413;DHT22;35493;50.276;9.372;2024-01-11T11:16:34;-3274.00;78.40
49413;DHT22;35493;50.276;9.372;2024-01-11T11:19:14;-3274.10;78.40
49413;DHT22;35493;50.276;9.372;2024-01-11T11:21:47;-3274.10;78.50
49413;DHT22;35493;50.276;9.372;2024-01-11T11:24:23;-3274.20;78.70
49413;DHT22;35493;50.276;9.372;2024-01-11T11:26:57;-3274.20;78.60
49413;DHT22;35493;50.276;9.372;2024-01-11T11:29:31;-3274.30;78.60
49413;DHT22;35493;50.276;9.372;2024-01-11T11:32:04;-3274.30;78.70
49413;DHT22;35493;50.276;9.372;2024-01-11T11:34:41;-3274.30;78.80
49413;DHT22;35493;50.276;9.372;2024-01-11T11:37:22;-3274.30;78.80
49413;DHT22;35493;50.276;9.372;2024-01-11T11:39:56;-3274.30;78.90
49413;DHT22;35493;50.276;9.372;2024-01-11T11:42:30;-3274.40;78.90
49413;DHT22;35493;50.276;9.372;2024-01-11T11:45:03;-3274.40;79.10
49413;DHT22;35493;50.276;9.372;2024-01-11T11:47:37;-3274.40;78.90
49413;DHT22;35493;50.276;9.372;2024-01-11T11:50:10;-3274.50;79.00
49413;DHT22;35493;50.276;9.372;2024-01-11T11:52:45;-3274.60;78.90
49413;DHT22;35493;50.276;9.372;2024-01-11T11:55:19;-3274.60;78.50
49413;DHT22;35493;50.276;9.372;2024-01-11T11:57:53;-3274.60;78.50
49413;DHT22;35493;50.276;9.372;2024-01-11T12:00:26;-3274.70;78.40
49413;DHT22;35493;50.276;9.372;2024-01-11T12:03:02;-3274.70;78.50
49413;DHT22;35493;50.276;9.372;2024-01-11T12:05:37;-3274.80;78.30
49413;DHT22;35493;50.276;9.372;2024-01-11T12:08:11;-3274.80;78.40
49413;DHT22;35493;50.276;9.372;2024-01-11T12:10:46;-3274.80;78.30
49413;DHT22;35493;50.276;9.372;2024-01-11T12:13:19;-3274.90;78.50
49413;DHT22;35493;50.276;9.372;2024-01-11T12:15:52;-3274.90;78.40
49413;DHT22;35493;50.276;9.372;2024-01-11T12:18:25;-3274.90;78.30
49413;DHT22;35493;50.276;9.372;2024-01-11T12:20:58;-3274.90;78.20
49413;DHT22;35493;50.276;9.372;2024-01-11T12:23:32;-3275.00;78.30
49413;DHT22;35493;50.276;9.372;2024-01-11T12:26:07;-3275.00;78.10
49413;DHT22;35493;50.276;9.372;2024-01-11T12:28:44;-3275.00;78.00
49413;DHT22;35493;50.276;9.372;2024-01-11T12:31:17;-3275.10;78.00
49413;DHT22;35493;50.276;9.372;2024-01-11T12:33:51;-3275.10;78.00
49413;DHT22;35493;50.276;9.372;2024-01-11T12:36:25;-3275.20;77.90
49413;DHT22;35493;50.276;9.372;2024-01-11T12:39:05;-3275.20;77.90
49413;DHT22;35493;50.276;9.372;2024-01-11T12:41:40;-3275.20;77.90
49413;DHT22;35493;50.276;9.372;2024-01-11T12:44:13;-3275.30;77.90
49413;DHT22;35493;50.276;9.372;2024-01-11T12:46:47;-3275.30;77.90
49413;DHT22;35493;50.276;9.372;2024-01-11T12:49:22;-3275.30;77.70
49413;DHT22;35493;50.276;9.372;2024-01-11T12:51:55;-3275.30;77.70
49413;DHT22;35493;50.276;9.372;2024-01-11T12:54:28;-3275.30;77.80
49413;DHT22;35493;50.276;9.372;2024-01-11T12:57:06;-3275.40;77.70
49413;DHT22;35493;50.276;9.372;2024-01-11T12:59:40;-3275.40;77.60
49413;DHT22;35493;50.276;9.372;2024-01-11T13:02:13;-3275.40;77.40
49413;DHT22;35493;50.276;9.372;2024-01-11T13:04:54;-3275.50;77.40
49413;DHT22;35493;50.276;9.372;2024-01-11T13:07:27;-3275.50;77.40
49413;DHT22;35493;50.276;9.372;2024-01-11T13:10:00;-3275.60;77.30
49413;DHT22;35493;50.276;9.372;2024-01-11T13:12:36;-3275.60;77.40
49413;DHT22;35493;50.276;9.372;2024-01-11T13:15:10;-3275.60;77.20
49413;DHT22;35493;50.276;9.372;2024-01-11T13:17:43;-3275.60;77.20
49413;DHT22;35493;50.276;9.372;2024-01-11T13:20:16;-3275.60;77.30
49413;DHT22;35493;50.276;9.372;2024-01-11T13:23:01;-3275.60;77.20
49413;DHT22;35493;50.276;9.372;2024-01-11T13:25:45;-3275.70;77.20
49413;DHT22;35493;50.276;9.372;2024-01-11T13:28:20;-3275.70;77.10
49413;DHT22;35493;50.276;9.372;2024-01-11T13:30:54;-3275.70;77.10
49413;DHT22;35493;50.276;9.372;2024-01-11T13:33:27;-3275.70;77.10
49413;DHT22;35493;50.276;9.372;2024-01-11T13:36:00;-3275.80;77.00
49413;DHT22;35493;50.276;9.372;2024-01-11T13:38:33;-3275.80;77.00
49413;DHT22;35493;50.276;9.372;2024-01-11T13:41:06;-3275.80;77.00
49413;DHT22;35493;50.276;9.372;2024-01-11T13:43:40;-3275.80;77.00
49413;DHT22;35493;50.276;9.372;2024-01-11T13:46:14;-3275.80;77.10
49413;DHT22;35493;50.276;9.372;2024-01-11T13:48:51;-3275.80;77.00
49413;DHT22;35493;50.276;9.372;2024-01-11T13:51:24;-3275.90;76.90
49413;DHT22;35493;50.276;9.372;2024-01-11T13:53:57;-3275.90;76.80
49413;DHT22;35493;50.276;9.372;2024-01-11T13:56:31;-3276.00;76.90
49413;DHT22;35493;50.276;9.372;2024-01-11T13:59:05;-3275.90;76.70
49413;DHT22;35493;50.276;9.372;2024-01-11T14:01:39;-3276.00;76.80
49413;DHT22;35493;50.276;9.372;2024-01-11T14:04:12;-3276.00;76.80
49413;DHT22;35493;50.276;9.372;2024-01-11T14:06:45;-3276.00;76.70
49413;DHT22;35493;50.276;9.372;2024-01-11T14:09:18;-3276.00;76.70
49413;DHT22;35493;50.276;9.372;2024-01-11T14:11:52;-3276.00;76.60
49413;DHT22;35493;50.276;9.372;2024-01-11T14:14:26;-3276.00;76.80
49413;DHT22;35493;50.276;9.372;2024-01-11T14:17:00;-3276.10;76.80
49413;DHT22;35493;50.276;9.372;2024-01-11T14:19:33;-3276.10;76.80
49413;DHT22;35493;50.276;9.372;2024-01-11T14:22:06;-3276.10;76.80
49413;DHT22;35493;50.276;9.372;2024-01-11T14:24:39;-3276.10;76.80
49413;DHT22;35493;50.276;9.372;2024-01-11T14:27:13;-3276.10;76.90
49413;DHT22;35493;50.276;9.372;2024-01-11T14:29:48;-3276.00;77.00
49413;DHT22;35493;50.276;9.372;2024-01-11T14:32:21;-3276.00;77.10
49413;DHT22;35493;50.276;9.372;2024-01-11T14:34:54;-3276.00;77.10
49413;DHT22;35493;50.276;9.372;2024-01-11T14:37:27;-3276.00;77.10
49413;DHT22;35493;50.276;9.372;2024-01-11T14:40:00;-3276.00;77.10
49413;DHT22;35493;50.276;9.372;2024-01-11T14:42:34;-3276.00;77.20
49413;DHT22;35493;50.276;9.372;2024-01-11T14:45:10;-3276.00;77.20
49413;DHT22;35493;50.276;9.372;2024-01-11T14:47:43;-3276.00;77.10
49413;DHT22;35493;50.276;9.372;2024-01-11T14:50:16;-3276.00;77.10
49413;DHT22;35493;50.276;9.372;2024-01-11T14:52:50;-3276.00;77.20
49413;DHT22;35493;50.276;9.372;2024-01-11T14:55:23;-3276.00;77.20
49413;DHT22;35493;50.276;9.372;2024-01-11T14:57:56;-3276.00;77.30
49413;DHT22;35493;50.276;9.372;2024-01-11T15:00:30;-3276.00;77.40
49413;DHT22;35493;50.276;9.372;2024-01-11T15:03:04;-3276.00;77.40
49413;DHT22;35493;50.276;9.372;2024-01-11T15:05:38;-3276.00;77.40
49413;DHT22;35493;50.276;9.372;2024-01-11T15:08:11;-3276.00;77.50
49413;DHT22;35493;50.276;9.372;2024-01-11T15:10:44;-3276.00;77.70
49413;DHT22;35493;50.276;9.372;2024-01-11T15:13:17;-3275.90;77.80
49413;DHT22;35493;50.276;9.372;2024-01-11T15:15:52;-3275.90;77.90
49413;DHT22;35493;50.276;9.372;2024-01-11T15:18:25;-3275.90;77.90
49413;DHT22;35493;50.276;9.372;2024-01-11T15:21:05;-3275.90;77.90
49413;DHT22;35493;50.276;9.372;2024-01-11T15:23:38;-3275.90;77.90
49413;DHT22;35493;50.276;9.372;2024-01-11T15:26:12;-3275.90;78.00
49413;DHT22;35493;50.276;9.372;2024-01-11T15:28:45;-3275.90;78.00
49413;DHT22;35493;50.276;9.372;2024-01-11T15:31:20;-3275.90;78.00